Time;durP1;ratioP1;P1;durP2;ratioP2;P2;SDS_P1;SDS_P2;PMS_P1;PMS_P2;Temp;Humidity;BMP_temperature;BMP_pressure;BME280_temperature;BME280_humidity;BME280_pressure;Samples;Min_cycle;Max_cycle;Signal;HPM_P1;HPM_P2
2023/11/20 00:00:13;;;;;;;8.10;7.30;;;;;;;7.86;48.98;101008.39;106395;1270;25257;-77
2023/11/20 00:02:42;;;;;;;8.40;7.60;;;;;;;7.88;48.96;101009.06;106403;1263;22641;-79
2023/11/20 00:05:11;;;;;;;8.40;7.40;;;;;;;7.89;48.84;101014.60;105538;1267;1003030;-78
2023/11/20 00:07:39;;;;;;;8.80;7.00;;;;;;;7.88;48.74;101013.39;106451;1264;24223;-79
2023/11/20 00:10:07;;;;;;;10.00;8.50;;;;;;;7.90;48.81;101010.78;106399;1264;22576;-79
2023/11/20 00:12:35;;;;;;;8.10;7.30;;;;;;;7.90;48.65;101007.51;106989;1258;22538;-77
2023/11/20 00:15:03;;;;;;;8.60;7.70;;;;;;;7.90;48.61;101013.36;106830;1257;24224;-77
2023/11/20 00:17:30;;;;;;;9.40;8.40;;;;;;;7.91;48.76;101022.36;106832;1275;22533;-80
2023/11/20 00:19:58;;;;;;;9.90;8.30;;;;;;;7.91;48.60;101014.56;106878;1257;24292;-79
2023/11/20 00:22:25;;;;;;;9.20;7.40;;;;;;;7.93;48.66;101016.46;106190;1254;1003243;-79
2023/11/20 00:24:53;;;;;;;11.10;8.30;;;;;;;7.95;48.63;101017.15;106127;1260;1003012;-79
2023/11/20 00:27:21;;;;;;;8.60;7.40;;;;;;;7.93;48.64;101015.77;106172;1260;1015650;-78
2023/11/20 00:29:48;;;;;;;12.90;8.00;;;;;;;7.92;48.73;101015.95;106742;1264;25290;-78
2023/11/20 00:32:16;;;;;;;8.60;7.70;;;;;;;7.92;48.64;101015.27;106821;1258;25490;-77
2023/11/20 00:34:44;;;;;;;10.10;8.00;;;;;;;7.90;48.35;101013.02;106922;1258;22635;-77
2023/11/20 00:37:11;;;;;;;8.70;7.80;;;;;;;7.87;48.49;101011.84;107041;1257;22539;-79
2023/11/20 00:39:40;;;;;;;8.20;7.40;;;;;;;7.84;48.52;101019.27;106608;1264;25419;-80
2023/11/20 00:42:08;;;;;;;9.40;7.80;;;;;;;7.83;48.64;101018.77;106905;1264;25376;-79
2023/11/20 00:44:36;;;;;;;9.30;7.30;;;;;;;7.83;48.74;101022.92;106526;1277;22570;-79
2023/11/20 00:47:04;;;;;;;10.30;7.80;;;;;;;7.82;48.79;101023.45;106828;1273;25369;-78
2023/11/20 00:49:31;;;;;;;8.50;7.50;;;;;;;7.84;48.65;101028.61;106914;1260;24429;-78
2023/11/20 00:51:59;;;;;;;9.10;7.40;;;;;;;7.86;48.78;101031.71;106831;1260;22705;-75
2023/11/20 00:54:27;;;;;;;9.90;8.10;;;;;;;7.85;48.54;101032.58;106895;1270;25288;-79
2023/11/20 00:56:54;;;;;;;8.80;7.90;;;;;;;7.84;48.68;101030.52;106786;1257;22536;-79
2023/11/20 00:59:22;;;;;;;12.00;8.30;;;;;;;7.83;48.75;101031.90;106727;1271;22524;-80
2023/11/20 01:01:50;;;;;;;9.70;8.40;;;;;;;7.84;48.71;101032.06;106853;1260;24219;-80
2023/11/20 01:04:19;;;;;;;9.30;8.30;;;;;;;7.85;48.59;101033.09;106874;1258;24268;-79
2023/11/20 01:06:47;;;;;;;11.90;8.80;;;;;;;7.83;48.75;101032.09;106811;1264;22536;-78
2023/11/20 01:09:15;;;;;;;7.70;7.00;;;;;;;7.83;48.85;101030.86;106838;1258;22526;-79
2023/11/20 01:11:44;;;;;;;10.20;8.40;;;;;;;7.85;48.73;101036.03;106849;1257;22638;-78
2023/11/20 01:14:12;;;;;;;9.40;7.60;;;;;;;7.85;48.71;101036.72;106591;1259;24267;-79
2023/11/20 01:16:41;;;;;;;11.70;8.10;;;;;;;7.86;48.80;101038.62;106580;1257;22538;-80
2023/11/20 01:19:09;;;;;;;9.20;8.20;;;;;;;7.85;48.69;101031.90;106600;1257;22534;-78
2023/11/20 01:21:37;;;;;;;9.50;8.60;;;;;;;7.82;48.26;101035.00;106385;1260;22540;-79
2023/11/20 01:24:06;;;;;;;10.20;8.40;;;;;;;7.78;48.03;101035.23;105930;1260;1003731;-79
2023/11/20 01:26:36;;;;;;;10.20;8.70;;;;;;;7.73;48.15;101038.52;106738;1257;22548;-81
2023/11/20 01:29:04;;;;;;;9.00;8.00;;;;;;;7.70;48.15;101037.67;106676;1258;22760;-78
2023/11/20 01:31:32;;;;;;;11.40;8.20;;;;;;;7.68;48.07;101038.39;105917;1255;1003339;-77
2023/11/20 01:33:59;;;;;;;11.30;8.00;;;;;;;7.65;47.93;101030.12;106164;1254;1003158;-78
2023/11/20 01:36:27;;;;;;;9.20;8.20;;;;;;;7.64;48.22;101038.40;106143;1261;1003311;-78
2023/11/20 01:38:55;;;;;;;10.00;8.40;;;;;;;7.64;48.29;101035.82;106279;1257;1003383;-79
2023/11/20 01:41:22;;;;;;;10.00;8.30;;;;;;;7.63;48.19;101038.58;106852;1257;24224;-79
2023/11/20 01:43:50;;;;;;;8.40;7.40;;;;;;;7.63;48.11;101041.69;106935;1255;25358;-81
2023/11/20 01:46:18;;;;;;;10.10;8.30;;;;;;;7.63;48.01;101041.69;106780;1260;22543;-77
2023/11/20 01:48:46;;;;;;;10.10;8.10;;;;;;;7.64;48.13;101042.91;106886;1257;25355;-79
2023/11/20 01:51:14;;;;;;;8.50;7.50;;;;;;;7.66;48.26;101038.58;106169;1261;1003338;-79
2023/11/20 01:53:42;;;;;;;9.40;8.30;;;;;;;7.66;48.14;101036.67;106798;1258;24211;-79
2023/11/20 01:56:10;;;;;;;9.40;8.30;;;;;;;7.67;48.33;101033.04;106974;1257;25043;-77
2023/11/20 01:58:37;;;;;;;9.50;7.80;;;;;;;7.66;48.16;101034.08;106920;1254;23886;-79
2023/11/20 02:01:05;;;;;;;8.30;7.30;;;;;;;7.66;48.22;101031.48;106929;1260;22557;-80
2023/11/20 02:03:33;;;;;;;9.60;8.60;;;;;;;7.70;48.47;101037.68;106893;1260;24216;-79
2023/11/20 02:06:01;;;;;;;9.70;8.20;;;;;;;7.72;48.69;101029.90;106978;1257;22603;-77
2023/11/20 02:08:29;;;;;;;9.70;8.40;;;;;;;7.73;48.52;101033.34;106885;1257;24221;-78
2023/11/20 02:10:59;;;;;;;10.80;9.00;;;;;;;7.72;48.57;101034.56;106938;1268;24205;-80
2023/11/20 02:13:27;;;;;;;10.20;8.00;;;;;;;7.71;48.49;101036.64;106161;1258;1003573;-79
2023/11/20 02:15:55;;;;;;;9.90;7.90;;;;;;;7.68;48.31;101031.30;106961;1257;25403;-78
2023/11/20 02:18:33;;;;;;;9.50;8.50;;;;;;;7.68;48.31;101035.29;106951;1269;22520;-78
2023/11/20 02:21:02;;;;;;;13.60;7.80;;;;;;;7.68;48.14;101038.90;106286;1253;1002688;-78
2023/11/20 02:23:30;;;;;;;10.80;8.50;;;;;;;7.69;48.00;101042.17;106944;1257;25374;-79
2023/11/20 02:26:35;;;;;;;9.10;7.70;;;;;;;7.70;48.02;101042.69;106513;1264;23898;-80
2023/11/20 02:29:36;;;;;;;9.30;8.00;;;;;;;7.71;47.82;101045.27;106945;1269;22534;-78
2023/11/20 02:32:04;;;;;;;9.80;8.30;;;;;;;7.73;47.96;101046.30;106446;1266;24260;-79
2023/11/20 02:34:31;;;;;;;9.20;8.20;;;;;;;7.73;47.72;101042.16;106702;1258;25344;-78
2023/11/20 02:36:59;;;;;;;9.60;7.90;;;;;;;7.72;47.86;101040.43;106705;1260;22533;-79
2023/11/20 02:39:27;;;;;;;10.10;7.80;;;;;;;7.71;47.93;101041.47;106690;1279;22932;-79
2023/11/20 02:41:55;;;;;;;9.90;7.50;;;;;;;7.70;47.91;101042.69;106700;1261;22553;-78
2023/11/20 02:44:22;;;;;;;9.60;8.20;;;;;;;7.68;47.99;101045.98;106631;1263;22543;-78
2023/11/20 02:46:50;;;;;;;10.30;8.00;;;;;;;7.71;48.13;101043.38;106773;1257;23876;-78
2023/11/20 02:49:18;;;;;;;8.70;7.80;;;;;;;7.74;47.92;101045.44;106736;1257;24218;-79
2023/11/20 02:51:46;;;;;;;11.90;8.20;;;;;;;7.78;47.77;101047.83;106507;1263;23913;-79
2023/11/20 02:54:14;;;;;;;10.40;8.20;;;;;;;7.78;47.79;101045.23;105698;1264;1003554;-77
2023/11/20 02:56:42;;;;;;;9.90;8.30;;;;;;;7.78;47.83;101050.24;106721;1262;25249;-78
2023/11/20 02:59:09;;;;;;;10.00;7.80;;;;;;;7.76;47.64;101050.08;105954;1262;1003732;-78
2023/11/20 03:01:37;;;;;;;10.00;8.10;;;;;;;7.76;47.66;101050.23;106382;1259;25331;-80
2023/11/20 03:04:05;;;;;;;9.20;8.30;;;;;;;7.77;47.46;101048.35;106076;1254;1002849;-80
2023/11/20 03:06:33;;;;;;;9.20;8.30;;;;;;;7.72;47.27;101047.52;106788;1259;22559;-79
2023/11/20 03:09:02;;;;;;;12.30;8.90;;;;;;;7.69;47.25;101039.92;106851;1258;22529;-77
2023/11/20 03:11:30;;;;;;;9.70;8.70;;;;;;;7.63;47.29;101040.48;106053;1270;1003334;-78
2023/11/20 03:13:57;;;;;;;11.00;9.40;;;;;;;7.60;47.28;101037.23;106719;1270;23860;-80
2023/11/20 03:16:25;;;;;;;10.30;8.80;;;;;;;7.57;47.28;101033.43;106722;1260;22662;-77
2023/11/20 03:18:53;;;;;;;9.90;8.50;;;;;;;7.56;47.46;101029.81;106560;1260;22539;-79
2023/11/20 03:21:22;;;;;;;10.30;9.00;;;;;;;7.54;47.47;101026.55;106751;1255;22534;-77
2023/11/20 03:23:49;;;;;;;10.60;8.90;;;;;;;7.53;47.58;101023.44;106839;1260;25361;-80
2023/11/20 03:26:24;;;;;;;10.80;9.00;;;;;;;7.52;47.54;101020.69;106674;1259;25264;-77
2023/11/20 03:28:52;;;;;;;10.40;8.90;;;;;;;7.51;47.64;101020.17;106773;1260;22543;-78
2023/11/20 03:31:19;;;;;;;10.20;8.60;;;;;;;7.49;47.55;101021.04;106756;1260;22530;-79
2023/11/20 03:33:47;;;;;;;12.70;9.40;;;;;;;7.47;47.50;101017.27;106950;1258;22530;-79
2023/11/20 03:36:15;;;;;;;13.90;9.70;;;;;;;7.47;47.46;101021.75;106820;1260;25455;-79
2023/11/20 03:38:44;;;;;;;11.80;9.90;;;;;;;7.47;47.66;101020.54;106841;1260;24292;-78
2023/11/20 03:41:12;;;;;;;10.60;8.30;;;;;;;7.45;47.52;101019.85;106870;1254;24243;-78
2023/11/20 03:43:39;;;;;;;11.50;9.50;;;;;;;7.43;47.53;101021.94;106839;1257;24224;-78
2023/11/20 03:46:07;;;;;;;11.40;9.00;;;;;;;7.41;47.41;101021.27;106948;1268;25373;-76
2023/11/20 03:48:35;;;;;;;11.70;9.40;;;;;;;7.41;47.38;101024.54;106886;1256;22622;-77
2023/11/20 03:51:04;;;;;;;10.90;8.90;;;;;;;7.41;47.38;101021.26;106795;1253;22524;-76
2023/11/20 03:53:32;;;;;;;12.10;9.60;;;;;;;7.42;47.53;101020.21;106351;1257;1003042;-77
2023/11/20 03:55:59;;;;;;;10.80;9.10;;;;;;;7.43;47.25;101019.52;106399;1255;1003370;-77
2023/11/20 03:58:28;;;;;;;11.90;9.70;;;;;;;7.41;47.34;101015.04;106237;1262;1016265;-79
2023/11/20 04:00:55;;;;;;;11.10;8.80;;;;;;;7.39;47.54;101016.61;106951;1257;22524;-78
2023/11/20 04:03:23;;;;;;;13.00;9.60;;;;;;;7.40;47.63;101017.81;106973;1269;22569;-77
2023/11/20 04:05:52;;;;;;;10.50;8.80;;;;;;;7.41;47.63;101021.25;106818;1259;24391;-77
2023/11/20 04:08:20;;;;;;;12.40;9.70;;;;;;;7.40;47.50;101024.02;106907;1255;24371;-78
2023/11/20 04:10:47;;;;;;;11.20;9.60;;;;;;;7.40;47.53;101021.09;107087;1269;24239;-78
2023/11/20 04:13:15;;;;;;;13.00;10.10;;;;;;;7.39;47.82;101017.81;106836;1256;24234;-77
2023/11/20 04:15:42;;;;;;;14.70;11.10;;;;;;;7.37;47.78;101015.23;106856;1259;24192;-79
2023/11/20 04:18:10;;;;;;;11.80;10.10;;;;;;;7.36;47.56;101011.60;106802;1273;24324;-78
2023/11/20 04:20:38;;;;;;;11.90;10.30;;;;;;;7.34;47.56;101010.94;106599;1259;22726;-79
2023/11/20 04:23:06;;;;;;;13.50;10.00;;;;;;;7.30;47.19;101009.40;105849;1259;1002855;-78
2023/11/20 04:25:34;;;;;;;12.00;9.40;;;;;;;7.26;47.19;101020.11;106585;1255;22549;-78
2023/11/20 04:28:01;;;;;;;12.10;9.90;;;;;;;7.24;47.22;101014.27;106442;1262;22533;-79
2023/11/20 04:30:29;;;;;;;12.00;9.60;;;;;;;7.21;47.21;101017.20;106537;1260;23898;-76
2023/11/20 04:32:57;;;;;;;12.20;9.80;;;;;;;7.18;47.11;101011.70;106385;1257;25245;-77
2023/11/20 04:35:25;;;;;;;11.50;10.20;;;;;;;7.16;47.25;101011.02;106476;1276;22547;-78
2023/11/20 04:37:52;;;;;;;12.10;10.10;;;;;;;7.17;47.50;101010.16;106566;1259;22747;-77
2023/11/20 04:40:20;;;;;;;12.10;10.70;;;;;;;7.15;47.35;101007.21;106299;1261;22537;-76
2023/11/20 04:42:47;;;;;;;15.50;11.40;;;;;;;7.14;47.37;101008.95;106406;1260;23718;-77
2023/11/20 04:45:15;;;;;;;12.70;10.10;;;;;;;7.14;47.54;101014.13;106775;1259;23305;-76
2023/11/20 04:47:43;;;;;;;11.90;10.10;;;;;;;7.14;47.58;101012.05;106849;1255;22533;-76
2023/11/20 04:50:11;;;;;;;14.90;11.10;;;;;;;7.14;47.88;101013.09;106923;1268;22539;-76
2023/11/20 04:52:39;;;;;;;15.70;10.80;;;;;;;7.15;48.14;101017.92;106831;1270;22529;-77
2023/11/20 04:55:08;;;;;;;12.50;10.80;;;;;;;7.16;48.04;101018.27;106808;1258;22544;-77
2023/11/20 04:57:36;;;;;;;14.20;10.70;;;;;;;7.15;48.11;101019.48;106070;1260;1003040;-77
2023/11/20 05:00:05;;;;;;;12.70;11.00;;;;;;;7.14;48.00;101018.96;106627;1261;22555;-78
2023/11/20 05:02:33;;;;;;;12.20;10.90;;;;;;;7.13;47.87;101020.33;106927;1270;22526;-79
2023/11/20 05:05:01;;;;;;;13.40;11.10;;;;;;;7.10;47.83;101022.77;106867;1257;22561;-77
2023/11/20 05:07:30;;;;;;;13.30;10.70;;;;;;;7.08;48.06;101022.08;106839;1255;23878;-76
2023/11/20 05:09:57;;;;;;;13.80;10.70;;;;;;;7.09;48.07;101022.60;106760;1260;23893;-77
2023/11/20 05:12:25;;;;;;;15.70;12.20;;;;;;;7.11;48.09;101018.30;106082;1257;1002995;-75
2023/11/20 05:14:56;;;;;;;14.70;12.00;;;;;;;7.12;48.09;101020.35;106798;1261;25349;-76
2023/11/20 05:17:24;;;;;;;13.60;11.50;;;;;;;7.13;48.13;101022.93;106827;1268;25380;-78
2023/11/20 05:19:51;;;;;;;16.60;11.90;;;;;;;7.17;48.22;101024.80;106096;1257;1003037;-77
2023/11/20 05:22:19;;;;;;;13.00;11.00;;;;;;;7.18;47.91;101027.23;106869;1259;22539;-76
2023/11/20 05:24:47;;;;;;;14.70;11.90;;;;;;;7.15;47.83;101028.79;106860;1256;24084;-76
2023/11/20 05:27:14;;;;;;;15.50;11.70;;;;;;;7.12;47.90;101025.87;106880;1255;24224;-77
2023/11/20 05:29:43;;;;;;;12.90;11.30;;;;;;;7.15;47.86;101029.30;106751;1256;22561;-76
2023/11/20 05:32:11;;;;;;;12.50;10.60;;;;;;;7.18;47.85;101031.02;106840;1255;22524;-77
2023/11/20 05:34:38;;;;;;;17.40;12.40;;;;;;;7.21;47.70;101034.11;107026;1253;24188;-77
2023/11/20 05:37:06;;;;;;;12.80;11.20;;;;;;;7.19;47.75;101032.92;106924;1260;25370;-77
2023/11/20 05:39:34;;;;;;;16.60;11.70;;;;;;;7.21;47.77;101035.84;107065;1255;22533;-77
2023/11/20 05:42:01;;;;;;;17.20;12.80;;;;;;;7.20;47.71;101037.74;107086;1253;22534;-76
2023/11/20 05:44:29;;;;;;;15.00;12.40;;;;;;;7.15;47.62;101037.07;106927;1260;22527;-75
2023/11/20 05:46:57;;;;;;;15.50;11.50;;;;;;;7.12;47.72;101033.11;106910;1258;24208;-77
2023/11/20 05:49:25;;;;;;;16.00;12.20;;;;;;;7.11;47.64;101036.05;107053;1256;25246;-77
2023/11/20 05:51:53;;;;;;;14.90;12.00;;;;;;;7.10;47.66;101035.71;106894;1268;23873;-79
2023/11/20 05:54:20;;;;;;;15.60;12.20;;;;;;;7.07;47.52;101037.42;106943;1259;22950;-77
2023/11/20 05:56:48;;;;;;;12.90;10.90;;;;;;;7.06;47.69;101040.20;106245;1258;1003846;-78
2023/11/20 05:59:16;;;;;;;13.00;11.40;;;;;;;7.05;47.69;101050.20;106270;1257;1003830;-77
2023/11/20 06:01:44;;;;;;;17.70;11.90;;;;;;;7.00;47.79;101059.19;107016;1257;25335;-75
2023/11/20 06:04:14;;;;;;;15.40;11.20;;;;;;;6.99;47.88;101058.15;106690;1264;22814;-76
2023/11/20 06:06:42;;;;;;;16.00;12.50;;;;;;;7.03;47.98;101061.94;106272;1260;1002930;-78
2023/11/20 06:09:10;;;;;;;16.40;12.40;;;;;;;6.99;48.03;101064.88;106904;1256;24222;-77
2023/11/20 06:11:39;;;;;;;16.40;13.30;;;;;;;6.98;48.01;101063.50;106903;1258;22534;-77
2023/11/20 06:14:07;;;;;;;14.80;11.20;;;;;;;6.99;47.91;101057.80;106875;1255;22530;-77
2023/11/20 06:16:35;;;;;;;17.20;11.80;;;;;;;7.00;47.84;101061.78;106124;1260;1003427;-77
2023/11/20 06:19:03;;;;;;;15.30;11.40;;;;;;;7.01;47.81;101063.50;106180;1258;1003580;-78
2023/11/20 06:21:30;;;;;;;15.70;11.70;;;;;;;7.08;47.56;101065.73;106859;1259;22560;-76
2023/11/20 06:23:58;;;;;;;12.60;10.90;;;;;;;7.09;47.65;101063.48;105873;1269;1002996;-78
2023/11/20 06:26:26;;;;;;;14.20;11.40;;;;;;;7.14;47.67;101065.71;106173;1257;1003076;-76
2023/11/20 06:28:54;;;;;;;15.90;12.30;;;;;;;7.09;47.49;101065.73;106170;1257;1002891;-76
2023/11/20 06:31:21;;;;;;;13.00;11.70;;;;;;;7.05;47.48;101065.89;106081;1255;1003468;-77
2023/11/20 06:33:49;;;;;;;15.50;11.70;;;;;;;7.02;47.42;101067.98;106354;1253;1002482;-76
2023/11/20 06:36:17;;;;;;;14.70;11.90;;;;;;;7.02;47.47;101075.05;107067;1255;22537;-76
2023/11/20 06:38:44;;;;;;;16.30;11.90;;;;;;;7.04;47.50;101079.19;106177;1257;1002990;-76
2023/11/20 06:41:17;;;;;;;17.00;12.20;;;;;;;7.05;47.55;101081.23;106121;1255;1003199;-76
2023/11/20 06:43:45;;;;;;;14.90;12.40;;;;;;;7.14;47.28;101084.17;106782;1259;24326;-76
2023/11/20 06:46:19;;;;;;;17.40;12.10;;;;;;;7.21;47.27;101082.77;106516;1260;471319;-76
2023/11/20 06:48:48;;;;;;;15.10;11.10;;;;;;;7.22;47.12;101084.14;107081;1258;24365;-76
2023/11/20 06:51:16;;;;;;;12.90;11.40;;;;;;;7.21;47.32;101077.08;106895;1257;22524;-76
2023/11/20 06:53:43;;;;;;;14.90;12.40;;;;;;;7.30;47.05;101075.49;106820;1255;25482;-77
2023/11/20 06:56:18;;;;;;;12.40;10.40;;;;;;;7.32;46.92;101074.80;107015;1258;24276;-76
2023/11/20 06:58:46;;;;;;;13.40;11.10;;;;;;;7.33;46.72;101075.98;106878;1257;22544;-78
2023/11/20 07:01:14;;;;;;;14.20;11.80;;;;;;;7.33;46.80;101076.00;106783;1258;23912;-77
2023/11/20 07:03:44;;;;;;;16.30;11.40;;;;;;;7.34;46.84;101075.82;106842;1260;22529;-76
2023/11/20 07:06:14;;;;;;;14.10;11.20;;;;;;;7.34;46.75;101077.90;106130;1259;1003130;-78
2023/11/20 07:08:42;;;;;;;14.70;12.00;;;;;;;7.32;46.68;101076.52;106958;1257;22554;-77
2023/11/20 07:11:10;;;;;;;12.70;10.80;;;;;;;7.32;46.69;101077.21;107117;1257;24281;-77
2023/11/20 07:13:38;;;;;;;14.70;11.80;;;;;;;7.32;46.67;101077.20;107103;1267;24216;-78
2023/11/20 07:16:07;;;;;;;14.60;11.40;;;;;;;7.30;46.42;101079.27;106702;1261;25380;-77
2023/11/20 07:18:34;;;;;;;13.30;10.80;;;;;;;7.29;46.58;101084.11;107002;1258;24285;-76
2023/11/20 07:21:02;;;;;;;13.40;11.00;;;;;;;7.30;46.62;101087.73;106160;1256;1002963;-77
2023/11/20 07:23:30;;;;;;;13.70;10.30;;;;;;;7.33;46.85;101088.25;106884;1256;22537;-77
2023/11/20 07:25:58;;;;;;;12.40;10.10;;;;;;;7.37;46.71;101086.85;106989;1256;22560;-76
2023/11/20 07:28:25;;;;;;;13.70;10.60;;;;;;;7.41;46.72;101085.64;106868;1261;24299;-76
2023/11/20 07:30:53;;;;;;;12.20;10.40;;;;;;;7.49;46.62;101086.30;106784;1268;22536;-77
2023/11/20 07:33:21;;;;;;;14.10;11.30;;;;;;;7.52;46.49;101087.16;106921;1260;22572;-78
2023/11/20 07:35:50;;;;;;;11.90;10.50;;;;;;;7.51;46.32;101086.80;106809;1262;22557;-77
2023/11/20 07:38:18;;;;;;;11.20;9.70;;;;;;;7.52;46.60;101086.46;106750;1260;24249;-77
2023/11/20 07:40:46;;;;;;;11.90;9.90;;;;;;;7.56;46.52;101089.38;106782;1260;22549;-77
2023/11/20 07:43:14;;;;;;;11.10;9.90;;;;;;;7.59;46.37;101090.22;106589;1270;25468;-76
2023/11/20 07:45:45;;;;;;;;;;;;;;;7.63;46.53;101092.63;106758;1260;22523;-77
2023/11/20 07:48:13;;;;;;;11.70;10.20;;;;;;;7.65;46.32;101095.89;106078;1258;1003405;-78
2023/11/20 07:50:41;;;;;;;16.60;10.50;;;;;;;7.64;46.34;101093.31;106064;1260;1003288;-74
2023/11/20 07:53:08;;;;;;;15.20;10.40;;;;;;;7.63;46.33;101093.14;106094;1255;1003093;-75
2023/11/20 07:55:36;;;;;;;12.00;10.20;;;;;;;7.63;46.40;101094.00;105716;1264;1002984;-78
2023/11/20 07:58:04;;;;;;;12.10;9.90;;;;;;;7.63;46.34;101093.48;106101;1260;1003258;-77
2023/11/20 08:00:32;;;;;;;12.00;9.00;;;;;;;7.63;46.30;101096.42;106790;1260;24266;-77
2023/11/20 08:02:59;;;;;;;12.90;10.40;;;;;;;7.66;46.05;101097.63;106152;1259;1002886;-76
2023/11/20 08:05:27;;;;;;;12.80;10.50;;;;;;;7.69;46.52;101097.95;106782;1260;22526;-76
2023/11/20 08:07:59;;;;;;;11.90;9.80;;;;;;;7.74;46.66;101103.98;106840;1272;23308;-75
2023/11/20 08:10:27;;;;;;;11.40;10.10;;;;;;;7.77;46.24;101102.39;106928;1268;24186;-76
2023/11/20 08:12:55;;;;;;;13.10;11.00;;;;;;;7.80;46.31;101103.07;106983;1257;26266;-75
2023/11/20 08:15:22;;;;;;;11.50;9.80;;;;;;;7.84;46.44;101099.94;106889;1268;23881;-76
2023/11/20 08:17:50;;;;;;;10.70;9.20;;;;;;;7.88;46.36;101102.16;106762;1260;24263;-75
2023/11/20 08:20:18;;;;;;;10.50;9.40;;;;;;;7.92;46.11;101098.35;107070;1268;25301;-76
2023/11/20 08:22:46;;;;;;;13.00;10.50;;;;;;;7.95;46.14;101099.02;106210;1273;1002955;-76
2023/11/20 08:25:14;;;;;;;11.30;9.40;;;;;;;7.99;46.11;101100.05;106172;1269;1003620;-76
2023/11/20 08:27:42;;;;;;;11.40;9.00;;;;;;;8.04;45.98;101101.39;107039;1269;22545;-76
2023/11/20 08:30:11;;;;;;;11.40;10.00;;;;;;;8.08;45.86;101100.16;107108;1257;22533;-76
2023/11/20 08:32:39;;;;;;;11.40;10.10;;;;;;;8.07;45.76;101101.55;107103;1272;24245;-75
2023/11/20 08:35:09;;;;;;;12.10;10.00;;;;;;;8.17;45.78;101102.01;107144;1270;22534;-75
2023/11/20 08:37:36;;;;;;;13.90;10.20;;;;;;;8.26;45.78;101099.36;107029;1259;22531;-76
2023/11/20 08:40:08;;;;;;;10.80;9.40;;;;;;;8.39;45.79;101095.66;106207;1273;1003534;-76
2023/11/20 08:42:37;;;;;;;13.90;9.90;;;;;;;8.50;45.39;101094.19;106148;1272;1003204;-76
2023/11/20 08:45:05;;;;;;;12.10;9.30;;;;;;;8.60;45.52;101095.68;106131;1269;1003039;-76
2023/11/20 08:47:35;;;;;;;10.50;8.90;;;;;;;8.71;45.28;101101.62;107102;1267;22648;-76
2023/11/20 08:50:03;;;;;;;10.30;9.20;;;;;;;8.79;44.95;101099.48;106152;1272;1003074;-75
2023/11/20 08:52:31;;;;;;;15.10;9.90;;;;;;;8.84;44.64;101099.95;106909;1257;24218;-75
2023/11/20 08:54:59;;;;;;;10.30;9.00;;;;;;;8.83;44.50;101099.45;106829;1257;22558;-78
2023/11/20 08:57:27;;;;;;;12.80;9.20;;;;;;;8.83;44.34;101093.23;107076;1256;25351;-75
2023/11/20 08:59:54;;;;;;;10.40;9.30;;;;;;;8.85;44.48;101095.29;107120;1269;22534;-75
2023/11/20 09:02:22;;;;;;;11.30;9.40;;;;;;;8.86;44.30;101095.09;106685;1273;22527;-75
2023/11/20 09:04:50;;;;;;;10.70;9.00;;;;;;;8.85;44.24;101095.79;107135;1256;25278;-74
2023/11/20 09:07:19;;;;;;;12.10;9.70;;;;;;;8.85;44.16;101102.19;106962;1259;22529;-74
2023/11/20 09:09:46;;;;;;;11.00;8.90;;;;;;;8.89;44.36;101099.91;106173;1270;1016308;-74
2023/11/20 09:12:14;;;;;;;12.20;9.30;;;;;;;8.94;44.06;101099.17;107074;1256;23340;-76
2023/11/20 09:14:42;;;;;;;12.40;10.10;;;;;;;8.94;43.83;101100.36;107083;1272;25637;-76
2023/11/20 09:17:10;;;;;;;11.10;8.90;;;;;;;8.96;44.01;101098.97;106319;1269;1003372;-75
2023/11/20 09:19:37;;;;;;;10.50;8.70;;;;;;;9.05;44.26;101099.23;106057;1259;1003523;-75
2023/11/20 09:22:05;;;;;;;10.80;9.60;;;;;;;9.16;43.90;101098.07;106106;1273;1003019;-75
2023/11/20 09:24:33;;;;;;;9.50;8.50;;;;;;;9.18;43.57;101097.86;106107;1272;1003823;-77
2023/11/20 09:27:00;;;;;;;11.10;9.10;;;;;;;9.23;43.90;101093.33;106969;1268;22640;-76
2023/11/20 09:29:28;;;;;;;10.40;8.70;;;;;;;9.32;43.61;101089.59;106867;1259;25366;-78
2023/11/20 09:31:56;;;;;;;10.70;8.90;;;;;;;9.36;43.37;101086.08;107029;1259;22533;-76
2023/11/20 09:34:23;;;;;;;10.60;8.90;;;;;;;9.37;43.26;101086.23;105675;1264;1003024;-76
2023/11/20 09:36:51;;;;;;;9.70;8.70;;;;;;;9.38;43.18;101080.86;106895;1268;22535;-75
2023/11/20 09:39:19;;;;;;;12.30;9.40;;;;;;;9.36;43.14;101076.20;106992;1257;22533;-75
2023/11/20 09:41:47;;;;;;;10.40;9.00;;;;;;;9.37;43.28;101077.60;106989;1256;24365;-77
2023/11/20 09:44:15;;;;;;;10.10;9.10;;;;;;;9.40;43.35;101078.75;107124;1258;23223;-75
2023/11/20 09:46:44;;;;;;;11.70;9.00;;;;;;;9.42;43.36;101071.81;106926;1268;22537;-77
2023/11/20 09:49:22;;;;;;;8.50;7.30;;;;;;;9.45;43.33;101069.00;106138;1253;1003095;-77
2023/11/20 09:51:51;;;;;;;10.40;8.70;;;;;;;9.49;43.16;101069.64;106909;1260;22532;-75
2023/11/20 09:54:19;;;;;;;9.70;8.70;;;;;;;9.53;43.32;101069.07;106180;1269;1003546;-75
2023/11/20 09:56:47;;;;;;;9.50;8.50;;;;;;;9.57;43.31;101067.63;106963;1257;22530;-75
2023/11/20 09:59:15;;;;;;;10.10;8.60;;;;;;;9.59;43.22;101064.31;106853;1275;25105;-75
2023/11/20 10:01:43;;;;;;;9.70;8.50;;;;;;;9.59;43.33;101061.89;106902;1257;25335;-76
2023/11/20 10:07:37;;;;;;;10.70;8.10;;;;;;;9.64;43.28;101052.83;103757;1305;545573;-77
2023/11/20 10:10:05;;;;;;;9.60;8.40;;;;;;;9.65;43.13;101047.27;105887;1273;24242;-76
2023/11/20 10:12:33;;;;;;;10.90;8.70;;;;;;;9.66;43.21;101045.86;105999;1288;25351;-76
2023/11/20 10:15:03;;;;;;;10.00;8.10;;;;;;;9.68;43.14;101046.02;106092;1270;22535;-76
2023/11/20 10:17:31;;;;;;;10.40;8.80;;;;;;;9.69;43.34;101045.30;106560;1276;22535;-76
2023/11/20 10:20:00;;;;;;;10.10;8.80;;;;;;;9.70;43.44;101045.46;106437;1275;22539;-76
2023/11/20 10:22:30;;;;;;;9.80;8.20;;;;;;;9.72;43.33;101046.66;106484;1273;23574;-75
2023/11/20 10:24:58;;;;;;;10.00;8.50;;;;;;;9.72;43.44;101039.89;106768;1272;22539;-75
2023/11/20 10:27:26;;;;;;;9.30;8.00;;;;;;;9.76;43.49;101039.84;106756;1278;25274;-77
2023/11/20 10:29:53;;;;;;;8.60;7.40;;;;;;;9.81;43.42;101039.42;106336;1262;1003579;-76
2023/11/20 10:32:21;;;;;;;9.60;8.50;;;;;;;9.84;43.23;101039.37;106912;1275;22634;-75
2023/11/20 10:34:49;;;;;;;10.80;8.30;;;;;;;9.87;43.20;101042.29;106943;1267;22530;-76
2023/11/20 10:37:18;;;;;;;9.50;8.00;;;;;;;9.91;43.33;101042.41;106948;1262;25246;-76
2023/11/20 10:39:46;;;;;;;9.30;7.70;;;;;;;9.95;43.29;101035.42;107083;1257;25468;-73
2023/11/20 10:42:15;;;;;;;9.20;7.60;;;;;;;10.02;43.21;101036.52;106719;1270;1003792;-72
2023/11/20 10:44:43;;;;;;;7.90;7.10;;;;;;;10.07;43.03;101029.85;107148;1272;26494;-73
2023/11/20 10:47:13;;;;;;;9.20;6.90;;;;;;;10.14;43.00;101026.84;106394;1275;24242;-73
2023/11/20 10:49:41;;;;;;;8.80;7.20;;;;;;;10.17;42.78;101029.04;106104;1272;1003023;-73
2023/11/20 10:52:10;;;;;;;7.30;6.60;;;;;;;10.18;42.73;101027.46;107118;1272;22521;-72
2023/11/20 10:54:44;;;;;;;8.10;6.90;;;;;;;10.19;42.40;101030.39;106903;1270;26252;-74
2023/11/20 10:57:12;;;;;;;7.60;6.80;;;;;;;10.20;42.53;101026.91;106235;1270;1005132;-73
2023/11/20 10:59:40;;;;;;;9.20;7.00;;;;;;;10.23;42.44;101028.60;106153;1259;1003086;-71
2023/11/20 11:02:11;;;;;;;9.50;7.20;;;;;;;10.25;42.49;101024.58;106906;1267;26502;-71
2023/11/20 11:04:39;;;;;;;7.60;6.40;;;;;;;10.29;42.46;101021.38;106234;1254;1003630;-72
2023/11/20 11:07:09;;;;;;;6.90;6.20;;;;;;;10.35;42.53;101017.13;106700;1267;22893;-73
2023/11/20 11:09:37;;;;;;;7.00;6.00;;;;;;;10.40;42.18;101014.27;106819;1262;24295;-72
2023/11/20 11:12:05;;;;;;;7.30;6.40;;;;;;;10.50;42.18;101019.48;106856;1259;25300;-70
2023/11/20 11:14:33;;;;;;;5.40;4.90;;;;;;;10.59;41.84;101020.52;106224;1270;1003763;-70
2023/11/20 11:17:01;;;;;;;6.10;4.50;;;;;;;10.68;41.43;101020.55;106811;1258;22527;-70
2023/11/20 11:19:33;;;;;;;5.70;5.00;;;;;;;10.78;41.09;101020.36;106890;1257;22529;-69